createdAt,value
2023-10-22T00:02:41.853Z,98873.59
2023-10-22T00:05:44.823Z,98869.69
2023-10-22T00:08:48.337Z,98868.50
2023-10-22T00:11:50.746Z,98858.66
2023-10-22T00:14:52.895Z,98844.69
2023-10-22T00:17:54.903Z,98839.97
2023-10-22T00:20:56.928Z,98831.34
2023-10-22T00:24:01.094Z,98825.19
2023-10-22T00:27:03.451Z,98830.53
2023-10-22T00:30:07.138Z,98828.53
2023-10-22T00:33:09.191Z,98834.69
2023-10-22T00:36:11.438Z,98852.00
2023-10-22T00:39:15.137Z,98843.59
2023-10-22T00:42:17.411Z,98848.13
2023-10-22T00:45:20.725Z,98845.31
2023-10-22T00:48:23.205Z,98840.41
2023-10-22T00:51:25.639Z,98839.53
2023-10-22T00:54:29.158Z,98839.97
2023-10-22T00:57:33.486Z,98836.19
2023-10-22T01:00:37.033Z,98830.16
2023-10-22T01:03:39.272Z,98825.84
2023-10-22T01:06:41.409Z,98825.47
2023-10-22T01:09:45.057Z,98825.06
2023-10-22T01:12:47.796Z,98827.72
2023-10-22T01:15:49.717Z,98827.72
2023-10-22T01:18:52.660Z,98835.13
2023-10-22T01:21:54.615Z,98845.38
2023-10-22T01:24:57.912Z,98843.66
2023-10-22T01:28:00.526Z,98847.31
2023-10-22T01:31:02.835Z,98833.50
2023-10-22T01:34:05.696Z,98832.03
2023-10-22T01:37:07.535Z,98826.47
2023-10-22T01:40:13.160Z,98822.91
2023-10-22T01:43:15.196Z,98815.03
2023-10-22T01:46:17.039Z,98815.63
2023-10-22T01:49:19.537Z,98824.28
2023-10-22T01:52:22.265Z,98815.44
2023-10-22T01:55:25.640Z,98812.09
2023-10-22T01:58:28.460Z,98810.59
2023-10-22T02:01:30.286Z,98811.41
2023-10-22T02:04:33.135Z,98811.78
2023-10-22T02:07:38.714Z,98816.28
2023-10-22T02:10:41.974Z,98826.75
2023-10-22T02:13:43.888Z,98826.53
2023-10-22T02:16:45.757Z,98836.34
2023-10-22T02:19:48.460Z,98835.75
2023-10-22T02:22:50.325Z,98835.75
2023-10-22T02:25:53.780Z,98832.84
2023-10-22T02:28:55.702Z,98828.75
2023-10-22T02:31:57.616Z,98824.00
2023-10-22T02:34:59.474Z,98831.66
2023-10-22T02:38:01.522Z,98824.06
2023-10-22T02:41:04.756Z,98819.81
2023-10-22T02:44:06.817Z,98817.22
2023-10-22T02:47:10.166Z,98806.50
2023-10-22T02:50:12.615Z,98797.66
2023-10-22T02:53:15.691Z,98806.28
2023-10-22T02:56:18.912Z,98809.41
2023-10-22T02:59:20.800Z,98810.91
2023-10-22T03:02:23.708Z,98807.81
2023-10-22T03:05:25.890Z,98805.59
2023-10-22T03:08:27.921Z,98817.56
2023-10-22T03:11:31.857Z,98827.44
2023-10-22T03:14:33.793Z,98811.22
2023-10-22T03:17:35.904Z,98815.53
2023-10-22T03:20:37.987Z,98818.44
2023-10-22T03:23:42.615Z,98815.34
2023-10-22T03:26:47.807Z,98823.38
2023-10-22T03:29:49.968Z,98832.66
2023-10-22T03:32:52.453Z,98836.16
2023-10-22T03:35:54.610Z,98830.00
2023-10-22T03:38:57.493Z,98823.81
2023-10-22T03:42:00.985Z,98821.34
2023-10-22T03:45:03.644Z,98823.34
2023-10-22T03:48:06.384Z,98832.63
2023-10-22T03:51:09.443Z,98834.88
2023-10-22T03:54:13.412Z,98827.28
2023-10-22T03:57:16.858Z,98831.16
2023-10-22T04:00:21.866Z,98844.16
2023-10-22T04:03:24.769Z,98853.00
2023-10-22T04:06:26.809Z,98847.44
2023-10-22T04:09:30.592Z,98855.44
2023-10-22T04:12:33.978Z,98865.06
2023-10-22T04:15:38.330Z,98858.84
2023-10-22T04:18:40.670Z,98861.75
2023-10-22T04:21:43.590Z,98864.63
2023-10-22T04:24:46.841Z,98858.88
2023-10-22T04:27:50.571Z,98859.09
2023-10-22T04:30:55.858Z,98861.84
2023-10-22T04:33:58.158Z,98882.25
2023-10-22T04:37:00.126Z,98886.41
2023-10-22T04:40:02.104Z,98882.53
2023-10-22T04:43:05.391Z,98896.72
2023-10-22T04:46:07.421Z,98897.53
2023-10-22T04:49:10.077Z,98902.72
2023-10-22T04:52:15.200Z,98914.47
2023-10-22T04:55:17.183Z,98919.81
2023-10-22T04:58:20.546Z,98917.13
2023-10-22T05:01:22.487Z,98924.13
2023-10-22T05:04:25.120Z,98931.50
2023-10-22T05:07:27.036Z,98938.72
2023-10-22T05:10:29.054Z,98941.22
2023-10-22T05:13:32.445Z,98941.38
2023-10-22T05:16:34.764Z,98951.69
2023-10-22T05:19:37.274Z,98952.97
2023-10-22T05:22:39.820Z,98954.47
2023-10-22T05:25:41.752Z,98960.84
2023-10-22T05:28:45.377Z,98985.22
2023-10-22T05:31:47.296Z,98977.13
2023-10-22T05:34:49.977Z,98990.28
2023-10-22T05:37:53.211Z,98996.59
2023-10-22T05:40:55.093Z,99012.22
2023-10-22T05:44:02.061Z,99013.66
2023-10-22T05:47:05.081Z,99016.31
2023-10-22T05:50:07.896Z,99022.69
2023-10-22T05:53:09.945Z,99034.22
2023-10-22T05:56:11.968Z,99038.75
2023-10-22T05:59:15.309Z,99063.66
2023-10-22T06:02:17.223Z,99069.00
2023-10-22T06:05:23.992Z,99079.50
2023-10-22T06:08:27.571Z,99070.44
2023-10-22T06:11:29.419Z,99072.88
2023-10-22T06:14:33.502Z,99070.81
2023-10-22T06:17:35.373Z,99073.50
2023-10-22T06:20:39.513Z,99109.31
2023-10-22T06:23:41.648Z,99112.59
2023-10-22T06:26:43.838Z,99118.34
2023-10-22T06:29:49.579Z,99115.06
2023-10-22T06:32:52.573Z,99128.47
2023-10-22T06:35:54.492Z,99127.03
2023-10-22T06:38:56.481Z,99126.03
2023-10-22T06:42:00.966Z,99132.63
2023-10-22T06:45:06.826Z,99132.44
2023-10-22T06:48:08.927Z,99131.00
2023-10-22T06:51:14.681Z,99142.97
2023-10-22T06:54:16.898Z,99144.78
2023-10-22T06:57:18.932Z,99162.91
2023-10-22T07:00:23.269Z,99170.53
2023-10-22T07:03:25.238Z,99161.69
2023-10-22T07:06:27.716Z,99170.56
2023-10-22T07:09:29.573Z,99173.69
2023-10-22T07:12:31.766Z,99189.53
2023-10-22T07:15:34.936Z,99189.34
2023-10-22T07:18:37.122Z,99195.13
2023-10-22T07:21:39.709Z,99198.63
2023-10-22T07:24:41.535Z,99191.81
2023-10-22T07:27:43.746Z,99197.78
2023-10-22T07:30:50.677Z,99201.03
2023-10-22T07:33:52.737Z,99206.75
2023-10-22T07:36:54.684Z,99205.69
2023-10-22T07:39:56.927Z,99217.56
2023-10-22T07:42:58.813Z,99222.91
2023-10-22T07:46:03.218Z,99221.28
2023-10-22T07:49:05.796Z,99225.00
2023-10-22T07:52:07.758Z,99236.09
2023-10-22T07:55:10.714Z,99254.69
2023-10-22T07:58:13.100Z,99251.66
2023-10-22T08:01:16.452Z,99253.72
2023-10-22T08:04:18.513Z,99233.19
2023-10-22T08:07:20.571Z,99243.44
2023-10-22T08:10:22.661Z,99243.22
2023-10-22T08:13:24.649Z,99243.22
2023-10-22T08:16:28.020Z,99249.97
2023-10-22T08:19:30.807Z,99254.91
2023-10-22T08:22:32.722Z,99261.06
2023-10-22T08:25:35.717Z,99266.75
2023-10-22T08:28:38.789Z,99283.31
2023-10-22T08:31:42.124Z,99281.41
2023-10-22T08:34:44.593Z,99270.44
2023-10-22T08:37:46.532Z,99274.88
2023-10-22T08:40:51.881Z,99281.38
2023-10-22T08:43:53.965Z,99296.06
2023-10-22T08:46:57.491Z,99302.84
2023-10-22T08:50:01.069Z,99307.00
2023-10-22T08:53:02.946Z,99310.44
2023-10-22T08:56:05.886Z,99315.16
2023-10-22T08:59:09.872Z,99320.88
2023-10-22T09:02:15.174Z,99280.78
2023-10-22T09:05:17.612Z,99296.41
2023-10-22T09:08:19.687Z,99308.72
2023-10-22T09:11:22.545Z,99294.75
2023-10-22T09:14:25.605Z,99306.91
2023-10-22T09:17:30.725Z,99319.25
2023-10-22T09:20:35.410Z,99298.22
2023-10-22T09:23:37.579Z,99309.03
2023-10-22T09:26:44.244Z,99338.91
2023-10-22T09:29:49.961Z,99331.94
2023-10-22T09:32:53.346Z,99378.84
2023-10-22T09:36:03.007Z,99383.56
2023-10-22T09:39:06.152Z,99376.75
2023-10-22T09:42:16.671Z,99380.75
2023-10-22T09:45:21.692Z,99385.25
2023-10-22T09:48:28.738Z,99397.41
2023-10-22T09:51:32.560Z,99396.38
2023-10-22T09:54:38.900Z,99391.59
2023-10-22T09:57:42.228Z,99403.28
2023-10-22T10:00:50.844Z,99400.78
2023-10-22T10:03:59.207Z,99414.41
2023-10-22T10:07:04.201Z,99418.25
2023-10-22T10:10:08.437Z,99418.16
2023-10-22T10:13:10.456Z,99419.59
2023-10-22T10:16:13.295Z,99425.09
2023-10-22T10:19:23.925Z,99431.16
2023-10-22T10:22:40.229Z,99422.47
2023-10-22T10:25:43.782Z,99422.34
2023-10-22T10:28:47.273Z,99443.84
2023-10-22T10:31:51.845Z,99455.22
2023-10-22T10:35:01.928Z,99446.66
2023-10-22T10:38:25.641Z,99449.69
2023-10-22T10:41:54.646Z,99449.81
2023-10-22T10:45:08.158Z,99465.06
2023-10-22T10:48:43.541Z,99436.78
2023-10-22T10:52:01.237Z,99451.09
2023-10-22T10:55:09.433Z,99458.22
2023-10-22T10:58:13.515Z,99475.97
2023-10-22T11:01:16.238Z,99459.03
2023-10-22T11:04:18.291Z,99465.53
2023-10-22T11:07:27.249Z,99457.00
2023-10-22T11:10:32.287Z,99455.94
2023-10-22T11:13:34.134Z,99450.34
2023-10-22T11:16:51.551Z,99461.91
2023-10-22T11:19:53.547Z,99471.78
2023-10-22T11:22:57.740Z,99474.84
2023-10-22T11:26:00.250Z,99460.25
2023-10-22T11:29:02.128Z,99459.41
2023-10-22T11:32:07.416Z,99465.56
2023-10-22T11:35:09.708Z,99468.13
2023-10-22T11:38:22.219Z,99474.06
2023-10-22T11:41:24.147Z,99427.56
2023-10-22T11:44:31.994Z,99456.84
2023-10-22T11:47:34.695Z,99454.31
2023-10-22T11:50:36.923Z,99473.72
2023-10-22T11:53:44.208Z,99465.50
2023-10-22T11:56:46.042Z,99469.94
2023-10-22T11:59:47.895Z,99466.41
2023-10-22T12:02:50.134Z,99480.50
2023-10-22T12:05:52.040Z,99488.38
2023-10-22T12:08:55.425Z,99483.91
2023-10-22T12:11:58.048Z,99478.97
2023-10-22T12:15:00.218Z,99488.06
2023-10-22T12:18:02.181Z,99479.56
2023-10-22T12:21:04.236Z,99488.63
2023-10-22T12:24:20.381Z,99493.44
2023-10-22T12:27:26.538Z,99491.13
2023-10-22T12:30:28.658Z,99497.53
2023-10-22T12:33:31.150Z,99502.28
2023-10-22T12:36:33.305Z,99497.84
2023-10-22T12:39:37.686Z,99498.44
2023-10-22T12:42:42.604Z,99505.19
2023-10-22T12:45:45.233Z,99511.41
2023-10-22T12:48:47.317Z,99516.25
2023-10-22T12:51:50.105Z,99515.75
2023-10-22T12:54:53.451Z,99532.09
2023-10-22T12:57:55.993Z,99534.13
2023-10-22T13:01:00.983Z,99518.94
2023-10-22T13:04:05.947Z,99523.88
2023-10-22T13:07:08.201Z,99530.25
2023-10-22T13:10:12.483Z,99547.66
2023-10-22T13:13:14.896Z,99527.88
2023-10-22T13:16:17.156Z,99535.22
2023-10-22T13:19:20.389Z,99543.28
2023-10-22T13:22:23.088Z,99535.78
2023-10-22T13:25:28.193Z,99539.88
2023-10-22T13:28:31.956Z,99521.97
2023-10-22T13:31:34.468Z,99541.81
2023-10-22T13:34:36.714Z,99525.34
2023-10-22T13:37:38.835Z,99526.94
2023-10-22T13:40:42.071Z,99529.78
2023-10-22T13:43:44.829Z,99542.16
2023-10-22T13:46:46.642Z,99541.06
2023-10-22T13:49:49.644Z,99541.09
2023-10-22T13:52:51.525Z,99547.47
2023-10-22T13:56:03.924Z,99555.91
2023-10-22T13:59:07.139Z,99550.38
2023-10-22T14:02:09.053Z,99558.13
2023-10-22T14:05:12.831Z,99572.56
2023-10-22T14:08:14.749Z,99571.44
2023-10-22T14:11:22.430Z,99578.19
2023-10-22T14:14:24.616Z,99565.03
2023-10-22T14:17:26.792Z,99587.66
2023-10-22T14:20:28.880Z,99579.56
2023-10-22T14:23:31.710Z,99594.34
2023-10-22T14:26:35.118Z,99594.84
2023-10-22T14:29:37.008Z,99599.38
2023-10-22T14:32:41.415Z,99612.34
2023-10-22T14:35:43.348Z,99609.38
2023-10-22T14:38:45.712Z,99599.00
2023-10-22T14:41:48.902Z,99612.50
2023-10-22T14:44:51.785Z,99613.81
2023-10-22T14:47:53.756Z,99611.19
2023-10-22T14:50:56.636Z,99619.47
2023-10-22T14:53:58.876Z,99633.22
2023-10-22T14:57:04.246Z,99634.25
2023-10-22T15:00:09.742Z,99629.06
2023-10-22T15:03:12.999Z,99629.69
2023-10-22T15:06:15.127Z,99646.84
2023-10-22T15:09:17.318Z,99646.44
2023-10-22T15:12:23.519Z,99650.31
2023-10-22T15:15:25.850Z,99655.97
2023-10-22T15:18:29.028Z,99648.03
2023-10-22T15:21:31.596Z,99656.00
2023-10-22T15:24:33.863Z,99650.31
2023-10-22T15:27:37.996Z,99662.75
2023-10-22T15:30:40.442Z,99669.31
2023-10-22T15:33:42.684Z,99668.56
2023-10-22T15:36:46.216Z,99678.34
2023-10-22T15:39:48.908Z,99687.63
2023-10-22T15:42:54.066Z,99684.91
2023-10-22T15:45:57.025Z,99696.22
2023-10-22T15:48:59.731Z,99694.53
2023-10-22T15:52:01.864Z,99704.59
2023-10-22T15:55:05.749Z,99707.22
2023-10-22T15:58:09.312Z,99696.94
2023-10-22T16:01:17.388Z,99701.56
2023-10-22T16:04:20.546Z,99713.91
2023-10-22T16:07:24.590Z,99706.41
2023-10-22T16:10:27.585Z,99724.69
2023-10-22T16:13:32.129Z,99710.53
2023-10-22T16:16:34.691Z,99722.38
2023-10-22T16:19:37.836Z,99728.69
2023-10-22T16:22:40.334Z,99742.97
2023-10-22T16:25:45.040Z,99746.06
2023-10-22T16:28:49.199Z,99746.28
2023-10-22T16:31:52.051Z,99744.00
2023-10-22T16:34:54.662Z,99746.88
2023-10-22T16:37:58.688Z,99764.38
2023-10-22T16:41:08.071Z,99763.22
2023-10-22T16:44:12.459Z,99761.00
2023-10-22T16:47:15.638Z,99758.56
2023-10-22T16:50:19.214Z,99763.34
2023-10-22T16:53:21.672Z,99773.03
2023-10-22T16:56:24.280Z,99773.72
2023-10-22T16:59:28.117Z,99771.72
2023-10-22T17:02:30.940Z,99779.16
2023-10-22T17:05:35.737Z,99779.19
2023-10-22T17:08:38.383Z,99786.59
2023-10-22T17:11:42.169Z,99783.31
2023-10-22T17:14:52.843Z,99788.47
2023-10-22T17:17:56.413Z,99801.78
2023-10-22T17:21:00.182Z,99808.38
2023-10-22T17:24:03.454Z,99802.53
2023-10-22T17:27:07.236Z,99817.44
2023-10-22T17:30:13.458Z,99800.78
2023-10-22T17:33:16.187Z,99806.03
2023-10-22T17:36:19.110Z,99806.59
2023-10-22T17:39:23.050Z,99810.97
2023-10-22T17:42:26.788Z,99814.41
2023-10-22T17:45:34.246Z,99815.38
2023-10-22T17:48:38.152Z,99812.47
2023-10-22T17:51:41.228Z,99804.63
2023-10-22T17:55:05.637Z,99800.47
2023-10-22T17:58:08.765Z,99802.22
2023-10-22T18:01:13.521Z,99811.06
2023-10-22T18:04:17.066Z,99811.00
2023-10-22T18:07:21.060Z,99813.91
2023-10-22T18:10:25.079Z,99811.63
2023-10-22T18:13:29.555Z,99813.88
2023-10-22T18:16:34.932Z,99814.63
2023-10-22T18:19:41.156Z,99817.59
2023-10-22T18:22:45.757Z,99820.34
2023-10-22T18:26:01.929Z,99827.13
2023-10-22T18:29:05.260Z,99826.38
2023-10-22T18:32:13.333Z,99816.53
2023-10-22T18:35:15.791Z,99822.16
2023-10-22T18:38:21.406Z,99827.69
2023-10-22T18:41:24.514Z,99818.34
2023-10-22T18:44:28.629Z,99825.06
2023-10-22T18:47:36.507Z,99824.66
2023-10-22T18:50:39.341Z,99829.28
2023-10-22T18:53:44.558Z,99835.72
2023-10-22T18:56:48.643Z,99822.97
2023-10-22T18:59:51.285Z,99819.41
2023-10-22T19:02:58.313Z,99835.19
2023-10-22T19:06:01.906Z,99837.00
2023-10-22T19:09:06.337Z,99832.50
2023-10-22T19:12:11.977Z,99841.47
2023-10-22T19:15:16.373Z,99856.66
2023-10-22T19:18:22.083Z,99859.09
2023-10-22T19:21:27.627Z,99870.25
2023-10-22T19:24:31.264Z,99874.31
2023-10-22T19:27:38.862Z,99869.84
2023-10-22T19:30:42.908Z,99880.28
2023-10-22T19:33:51.230Z,99881.94
2023-10-22T19:36:55.154Z,99891.84
2023-10-22T19:39:59.564Z,99883.16
2023-10-22T19:43:03.643Z,99887.59
2023-10-22T19:46:07.217Z,99891.53
2023-10-22T19:49:12.539Z,99891.22
2023-10-22T19:52:22.820Z,99895.31
2023-10-22T19:55:37.813Z,99901.34
2023-10-22T19:58:41.397Z,99910.25
2023-10-22T20:01:44.779Z,99903.13
2023-10-22T20:04:50.153Z,99909.97
2023-10-22T20:07:53.482Z,99932.13
2023-10-22T20:10:56.215Z,99914.22
2023-10-22T20:13:59.220Z,99914.19
2023-10-22T20:17:03.993Z,99920.38
2023-10-22T20:20:10.777Z,99929.84
2023-10-22T20:23:13.561Z,99919.19
2023-10-22T20:26:17.003Z,99915.41
2023-10-22T20:29:19.588Z,99918.41
2023-10-22T20:32:22.081Z,99920.63
2023-10-22T20:35:27.142Z,99913.75
2023-10-22T20:38:29.201Z,99906.78
2023-10-22T20:41:32.984Z,99901.19
2023-10-22T20:44:35.411Z,99915.66
2023-10-22T20:47:37.740Z,99916.69
2023-10-22T20:50:41.053Z,99909.97
2023-10-22T20:53:45.736Z,99920.03
2023-10-22T20:56:48.034Z,99917.25
2023-10-22T20:59:49.989Z,99918.50
2023-10-22T21:02:51.888Z,99939.28
2023-10-22T21:05:56.106Z,99938.13
2023-10-22T21:08:59.905Z,99939.28
2023-10-22T21:12:02.820Z,99929.03
2023-10-22T21:15:05.873Z,99923.25
2023-10-22T21:18:07.892Z,99923.94
2023-10-22T21:21:12.267Z,99921.84
2023-10-22T21:24:14.617Z,99915.59
2023-10-22T21:27:16.755Z,99918.13
2023-10-22T21:30:18.896Z,99928.09
2023-10-22T21:33:24.702Z,99937.41
2023-10-22T21:36:28.137Z,99942.38
2023-10-22T21:39:30.066Z,99948.22
2023-10-22T21:42:32.961Z,99953.72
2023-10-22T21:45:35.031Z,99944.75
2023-10-22T21:48:38.772Z,99940.09
2023-10-22T21:51:42.150Z,99955.03
2023-10-22T21:54:44.081Z,99940.09
2023-10-22T21:57:49.137Z,99946.91
2023-10-22T22:00:51.387Z,99947.56
2023-10-22T22:03:58.087Z,99949.38
2023-10-22T22:07:01.477Z,99953.72
2023-10-22T22:10:05.170Z,99945.75
2023-10-22T22:13:07.089Z,99944.91
2023-10-22T22:16:09.695Z,99946.91
2023-10-22T22:19:11.811Z,99950.44
2023-10-22T22:22:16.875Z,99949.75
2023-10-22T22:25:21.329Z,99956.28
2023-10-22T22:28:29.733Z,99953.44
2023-10-22T22:31:31.629Z,99951.94
2023-10-22T22:34:33.589Z,99959.75
2023-10-22T22:37:40.161Z,99961.09
2023-10-22T22:40:42.264Z,99968.09
2023-10-22T22:43:47.659Z,99971.75
2023-10-22T22:46:49.698Z,99965.28
2023-10-22T22:49:58.800Z,99974.56
2023-10-22T22:53:02.253Z,99978.06
2023-10-22T22:56:05.705Z,99979.38
2023-10-22T22:59:07.679Z,99980.59
2023-10-22T23:02:10.614Z,99975.28
2023-10-22T23:05:12.664Z,99969.47
2023-10-22T23:08:16.931Z,99966.50
2023-10-22T23:11:18.897Z,99965.97
2023-10-22T23:14:20.748Z,99968.13
2023-10-22T23:17:22.620Z,99966.31
2023-10-22T23:20:24.476Z,99970.63
2023-10-22T23:23:27.811Z,99968.31
2023-10-22T23:26:30.164Z,99959.66
2023-10-22T23:29:32.411Z,99963.16
2023-10-22T23:32:34.342Z,99960.97
2023-10-22T23:35:37.021Z,99961.47
2023-10-22T23:38:40.694Z,99966.78
2023-10-22T23:41:42.537Z,99964.97
2023-10-22T23:44:45.366Z,99963.50
2023-10-22T23:47:47.262Z,99962.16
2023-10-22T23:50:49.133Z,99967.31
2023-10-22T23:53:52.447Z,99967.91
2023-10-22T23:56:54.255Z,99965.75
2023-10-22T23:59:56.624Z,99969.09
